createdAt,value
2018-05-14T00:00:20.163Z,14.3
2018-05-14T00:01:10.230Z,14.2
2018-05-14T00:02:00.303Z,14.1
2018-05-14T00:02:50.090Z,13.9
2018-05-14T00:03:40.328Z,13.9
2018-05-14T00:04:29.916Z,13.9
2018-05-14T00:05:20.297Z,13.8
2018-05-14T00:06:10.621Z,13.8
2018-05-14T00:07:00.393Z,13.7
2018-05-14T00:07:50.460Z,13.8
2018-05-14T00:08:40.541Z,13.8
2018-05-14T00:09:30.592Z,13.7
2018-05-14T00:10:21.092Z,13.6
2018-05-14T00:11:10.733Z,13.6
2018-05-14T00:12:01.037Z,13.6
2018-05-14T00:12:51.129Z,13.6
2018-05-14T00:13:41.176Z,13.7
2018-05-14T00:14:31.231Z,13.8
2018-05-14T00:15:20.461Z,13.8
2018-05-14T00:16:11.339Z,13.8
2018-05-14T00:17:01.421Z,13.8
2018-05-14T00:17:51.504Z,13.8
2018-05-14T00:18:41.553Z,13.8
2018-05-14T00:19:31.611Z,14
2018-05-14T00:20:21.685Z,14.1
2018-05-14T00:21:11.733Z,14.2
2018-05-14T00:22:01.518Z,14.4
2018-05-14T00:22:51.574Z,14.6
2018-05-14T00:23:41.357Z,14.6
2018-05-14T00:24:32.074Z,14.4
2018-05-14T00:25:21.790Z,14.6
2018-05-14T00:26:12.140Z,14.6
2018-05-14T00:27:02.183Z,14.5
2018-05-14T00:27:51.959Z,14.5
2018-05-14T00:28:42.303Z,14.6
2018-05-14T00:29:32.363Z,14.6
2018-05-14T00:30:22.428Z,14.5
2018-05-14T00:31:12.482Z,14.5
2018-05-14T00:32:02.597Z,14.3
2018-05-14T00:32:52.605Z,14.3
2018-05-14T00:33:42.445Z,14.1
2018-05-14T00:34:32.450Z,14
2018-05-14T00:35:22.830Z,13.9
2018-05-14T00:36:12.577Z,13.9
2018-05-14T00:37:02.467Z,13.8
2018-05-14T00:37:52.975Z,13.8
2018-05-14T00:38:43.080Z,13.8
2018-05-14T00:39:33.119Z,13.8
2018-05-14T00:40:23.191Z,13.8
2018-05-14T00:41:13.257Z,13.8
2018-05-14T00:42:03.300Z,14
2018-05-14T00:42:52.800Z,14.3
2018-05-14T00:43:43.154Z,14.3
2018-05-14T00:44:33.493Z,14.3
2018-05-14T00:45:23.563Z,14.3
2018-05-14T00:46:13.614Z,14.1
2018-05-14T00:47:03.674Z,14.1
2018-05-14T00:47:53.455Z,14.1
2018-05-14T00:48:43.798Z,14.3
2018-05-14T00:49:34.634Z,14.2
2018-05-14T00:50:23.954Z,14.1
2018-05-14T00:51:13.991Z,14
2018-05-14T00:52:03.761Z,13.9
2018-05-14T00:52:53.856Z,13.9
2018-05-14T00:53:44.181Z,13.9
2018-05-14T00:54:34.237Z,13.9
2018-05-14T00:55:24.039Z,13.9
2018-05-14T00:56:14.077Z,13.8
2018-05-14T00:57:04.418Z,13.8
2018-05-14T00:57:54.483Z,13.8
2018-05-14T00:58:43.980Z,13.8
2018-05-14T00:59:34.601Z,13.7
2018-05-14T01:00:24.688Z,13.7
2018-05-14T01:01:14.746Z,13.6
2018-05-14T01:02:04.831Z,13.6
2018-05-14T01:02:54.860Z,13.6
2018-05-14T01:03:44.656Z,13.6
2018-05-14T01:04:35.010Z,13.6
2018-05-14T01:05:25.067Z,13.6
2018-05-14T01:06:14.830Z,13.6
2018-05-14T01:07:05.165Z,13.6
2018-05-14T01:07:55.251Z,13.6
2018-05-14T01:08:45.305Z,13.6
2018-05-14T01:09:35.085Z,13.6
2018-05-14T01:10:25.152Z,13.6
2018-05-14T01:11:15.486Z,13.6
2018-05-14T01:12:05.561Z,13.6
2018-05-14T01:12:55.612Z,13.7
2018-05-14T01:13:45.118Z,13.7
2018-05-14T01:14:35.748Z,13.6
2018-05-14T01:15:25.517Z,13.6
2018-05-14T01:16:15.865Z,13.6
2018-05-14T01:17:05.947Z,13.6
2018-05-14T01:17:55.752Z,13.6
2018-05-14T01:18:46.147Z,13.6
2018-05-14T01:19:35.842Z,13.5
2018-05-14T01:20:26.174Z,13.5
2018-05-14T01:21:16.262Z,13.5
2018-05-14T01:22:05.785Z,13.5
2018-05-14T01:22:56.366Z,13.5
2018-05-14T01:23:46.259Z,13.6
2018-05-14T01:24:36.573Z,13.5
2018-05-14T01:25:26.614Z,13.5
2018-05-14T01:26:16.633Z,13.5
2018-05-14T01:27:05.872Z,13.4
2018-05-14T01:27:56.759Z,13.4
2018-05-14T01:28:46.901Z,13.4
2018-05-14T01:29:36.306Z,13.5
2018-05-14T01:30:26.655Z,13.5
2018-05-14T01:31:17.013Z,13.4
2018-05-14T01:32:06.496Z,13.4
2018-05-14T01:32:57.216Z,13.4
2018-05-14T01:33:46.646Z,13.4
2018-05-14T01:34:37.306Z,13.4
2018-05-14T01:35:27.314Z,13.4
2018-05-14T01:36:17.186Z,13.4
2018-05-14T01:37:06.874Z,13.4
2018-05-14T01:37:57.203Z,13.4
2018-05-14T01:38:47.561Z,13.3
2018-05-14T01:39:37.630Z,13.4
2018-05-14T01:40:27.129Z,13.4
2018-05-14T01:41:17.797Z,13.3
2018-05-14T01:42:07.812Z,13.4
2018-05-14T01:42:57.871Z,13.4
2018-05-14T01:43:47.760Z,13.3
2018-05-14T01:44:38.002Z,13.4
2018-05-14T01:45:28.068Z,13.4
2018-05-14T01:46:18.145Z,13.4
2018-05-14T01:47:07.629Z,13.4
2018-05-14T01:47:58.017Z,13.3
2018-05-14T01:48:48.321Z,13.3
2018-05-14T01:49:38.407Z,13.3
2018-05-14T01:50:28.464Z,13.4
2018-05-14T01:51:18.231Z,13.3
2018-05-14T01:52:08.020Z,13.4
2018-05-14T01:52:58.377Z,13.4
2018-05-14T01:53:48.683Z,13.4
2018-05-14T01:54:38.288Z,13.4
2018-05-14T01:55:28.815Z,13.4
2018-05-14T01:56:18.880Z,13.4
2018-05-14T01:57:08.921Z,13.4
2018-05-14T01:57:58.733Z,13.4
2018-05-14T01:58:49.076Z,13.3
2018-05-14T01:59:39.132Z,13.3
2018-05-14T02:00:29.234Z,13.3
2018-05-14T02:01:18.694Z,13.3
2018-05-14T02:02:09.307Z,13.3
2018-05-14T02:02:59.361Z,13.3
2018-05-14T02:03:49.184Z,13.3
2018-05-14T02:04:39.485Z,13.3
2018-05-14T02:05:29.283Z,13.3
2018-05-14T02:06:19.624Z,13.2
2018-05-14T02:07:09.690Z,13.2
2018-05-14T02:07:59.446Z,13.2
2018-05-14T02:08:49.809Z,13.2
2018-05-14T02:09:39.591Z,13.1
2018-05-14T02:10:29.939Z,13.1
2018-05-14T02:11:19.736Z,13.1
2018-05-14T02:12:10.083Z,13.2
2018-05-14T02:13:00.127Z,13.2
2018-05-14T02:13:50.206Z,13.3
2018-05-14T02:14:39.997Z,13.3
2018-05-14T02:15:30.056Z,13.4
2018-05-14T02:16:20.108Z,13.5
2018-05-14T02:17:10.460Z,13.5
2018-05-14T02:18:00.503Z,13.4
2018-05-14T02:18:50.573Z,13.4
2018-05-14T02:19:40.338Z,13.4
2018-05-14T02:20:30.688Z,13.3
2018-05-14T02:21:20.756Z,13.3
2018-05-14T02:22:10.807Z,13.3
2018-05-14T02:23:00.320Z,13.2
2018-05-14T02:23:50.945Z,13.3
2018-05-14T02:24:41.021Z,13.3
2018-05-14T02:25:30.968Z,13.4
2018-05-14T02:26:21.128Z,13.4
2018-05-14T02:27:10.910Z,13.6
2018-05-14T02:28:01.281Z,13.6
2018-05-14T02:28:51.388Z,13.6
2018-05-14T02:29:41.111Z,13.8
2018-05-14T02:30:31.172Z,13.7
2018-05-14T02:31:21.534Z,13.6
2018-05-14T02:32:11.570Z,13.7
2018-05-14T02:33:01.372Z,13.7
2018-05-14T02:33:51.415Z,13.8
2018-05-14T02:34:41.217Z,13.9
2018-05-14T02:35:31.801Z,13.8
2018-05-14T02:36:21.894Z,13.6
2018-05-14T02:37:11.775Z,13.5
2018-05-14T02:38:02.042Z,13.4
2018-05-14T02:38:51.781Z,13.4
2018-05-14T02:39:42.120Z,13.4
2018-05-14T02:40:32.216Z,13.4
2018-05-14T02:41:21.745Z,13.4
2018-05-14T02:42:11.780Z,13.4
2018-05-14T02:43:02.447Z,13.3
2018-05-14T02:43:52.483Z,13.3
2018-05-14T02:44:42.514Z,13.4
2018-05-14T02:45:32.589Z,13.4
2018-05-14T02:46:22.627Z,13.4
2018-05-14T02:47:12.407Z,13.3
2018-05-14T02:48:02.512Z,13.3
2018-05-14T02:48:52.272Z,13.3
2018-05-14T02:49:42.882Z,13.3
2018-05-14T02:50:32.984Z,13.3
2018-05-14T02:51:23.004Z,13.3
2018-05-14T02:52:13.091Z,13.3
2018-05-14T02:53:03.144Z,13.2
2018-05-14T02:53:53.212Z,13.2
2018-05-14T02:54:43.251Z,13.2
2018-05-14T02:55:33.351Z,13.3
2018-05-14T02:56:23.401Z,13.3
2018-05-14T02:57:13.463Z,13.3
2018-05-14T02:58:03.503Z,13.3
2018-05-14T02:58:53.668Z,13.3
2018-05-14T02:59:43.638Z,13.3
2018-05-14T03:00:33.731Z,13.3
2018-05-14T03:01:23.786Z,13.3
2018-05-14T03:02:13.848Z,13.3
2018-05-14T03:03:03.318Z,13.4
2018-05-14T03:03:53.945Z,13.4
2018-05-14T03:04:43.756Z,13.3
2018-05-14T03:05:33.513Z,13.3
2018-05-14T03:06:24.131Z,13.3
2018-05-14T03:07:13.917Z,13.3
2018-05-14T03:08:03.717Z,13.3
2018-05-14T03:08:54.129Z,13.3
2018-05-14T03:09:44.393Z,13.3
2018-05-14T03:10:35.221Z,13.3
2018-05-14T03:11:24.519Z,13.3
2018-05-14T03:12:14.268Z,13.3
2018-05-14T03:13:04.092Z,13.3
2018-05-14T03:13:54.158Z,13.3
2018-05-14T03:14:44.765Z,13.3
2018-05-14T03:15:34.537Z,13.3
2018-05-14T03:16:24.887Z,13.3
2018-05-14T03:17:14.931Z,13.3
2018-05-14T03:18:04.733Z,13.2
2018-05-14T03:18:54.792Z,13.2
2018-05-14T03:19:45.137Z,13.2
2018-05-14T03:20:34.665Z,13.2
2018-05-14T03:21:25.244Z,13.2
2018-05-14T03:22:15.342Z,13.2
2018-05-14T03:23:05.360Z,13.2
2018-05-14T03:23:55.424Z,13.2
2018-05-14T03:24:45.211Z,13.1
2018-05-14T03:25:35.592Z,13.1
2018-05-14T03:26:25.623Z,13.1
2018-05-14T03:27:15.415Z,13.1
2018-05-14T03:28:05.456Z,13.2
2018-05-14T03:28:55.537Z,13.1
2018-05-14T03:29:45.884Z,13.1
2018-05-14T03:30:35.444Z,13.2
2018-05-14T03:31:26.017Z,13.2
2018-05-14T03:32:15.794Z,13.2
2018-05-14T03:33:06.135Z,13.3
2018-05-14T03:33:56.194Z,13.3
2018-05-14T03:34:46.276Z,13.3
2018-05-14T03:35:36.305Z,13.3
2018-05-14T03:36:26.371Z,13.3
2018-05-14T03:37:15.882Z,13.3
2018-05-14T03:38:06.516Z,13.3
2018-05-14T03:38:56.551Z,13.3
2018-05-14T03:39:46.621Z,13.3
2018-05-14T03:40:36.708Z,13.3
2018-05-14T03:41:26.758Z,13.4
2018-05-14T03:42:16.816Z,13.3
2018-05-14T03:43:06.868Z,13.4
2018-05-14T03:43:56.671Z,13.4
2018-05-14T03:44:46.983Z,13.4
2018-05-14T03:45:36.783Z,13.4
2018-05-14T03:46:27.124Z,13.4
2018-05-14T03:47:17.186Z,13.4
2018-05-14T03:48:06.975Z,13.4
2018-05-14T03:48:57.320Z,13.4
2018-05-14T03:49:47.193Z,13.4
2018-05-14T03:50:37.445Z,13.4
2018-05-14T03:51:27.523Z,13.4
2018-05-14T03:52:17.560Z,13.4
2018-05-14T03:53:07.617Z,13.4
2018-05-14T03:53:57.423Z,13.4
2018-05-14T03:54:47.767Z,13.4
2018-05-14T03:55:37.822Z,13.4
2018-05-14T03:56:27.328Z,13.5
2018-05-14T03:57:17.967Z,13.5
2018-05-14T03:58:08.009Z,13.6
2018-05-14T03:58:57.801Z,13.6
2018-05-14T03:59:47.608Z,13.6
2018-05-14T04:00:37.660Z,13.6
2018-05-14T04:01:27.685Z,13.6
2018-05-14T04:02:18.610Z,13.5
2018-05-14T04:03:07.931Z,13.5
2018-05-14T04:03:58.183Z,13.6
2018-05-14T04:04:48.246Z,13.6
2018-05-14T04:05:38.627Z,13.7
2018-05-14T04:06:28.381Z,13.7
2018-05-14T04:07:18.413Z,13.7
2018-05-14T04:08:08.767Z,13.7
2018-05-14T04:08:58.531Z,13.7
2018-05-14T04:09:48.875Z,13.8
2018-05-14T04:10:38.937Z,13.8
2018-05-14T04:11:28.737Z,13.8
2018-05-14T04:12:19.187Z,13.8
2018-05-14T04:13:09.119Z,13.9
2018-05-14T04:13:58.899Z,13.9
2018-05-14T04:14:49.253Z,13.9
2018-05-14T04:15:39.329Z,13.9
2018-05-14T04:16:29.683Z,14
2018-05-14T04:17:19.462Z,14
2018-05-14T04:18:09.510Z,14.1
2018-05-14T04:18:59.581Z,14.1
2018-05-14T04:19:49.660Z,14.1
2018-05-14T04:20:39.418Z,14.1
2018-05-14T04:21:29.213Z,14.2
2018-05-14T04:22:19.828Z,14.2
2018-05-14T04:23:09.343Z,14.2
2018-05-14T04:23:59.682Z,14.2
2018-05-14T04:24:50.010Z,14.3
2018-05-14T04:25:39.790Z,14.3
2018-05-14T04:26:29.860Z,14.3
2018-05-14T04:27:19.916Z,14.3
2018-05-14T04:28:10.255Z,14.3
2018-05-14T04:29:00.331Z,14.3
2018-05-14T04:29:50.090Z,14.3
2018-05-14T04:30:40.192Z,14.4
2018-05-14T04:31:29.686Z,14.5
2018-05-14T04:32:20.013Z,14.5
2018-05-14T04:33:10.356Z,14.6
2018-05-14T04:34:00.702Z,14.6
2018-05-14T04:34:50.203Z,14.6
2018-05-14T04:35:40.546Z,14.8
2018-05-14T04:36:30.613Z,14.7
2018-05-14T04:37:20.953Z,14.6
2018-05-14T04:38:11.015Z,14.7
2018-05-14T04:39:01.082Z,14.8
2018-05-14T04:39:51.166Z,14.9
2018-05-14T04:40:41.196Z,14.9
2018-05-14T04:41:31.275Z,15
2018-05-14T04:42:21.068Z,15
2018-05-14T04:43:11.371Z,14.9
2018-05-14T04:44:00.865Z,14.9
2018-05-14T04:44:51.502Z,14.8
2018-05-14T04:45:41.578Z,14.7
2018-05-14T04:46:31.621Z,14.7
2018-05-14T04:47:21.469Z,14.8
2018-05-14T04:48:11.484Z,14.8
2018-05-14T04:49:00.991Z,14.9
2018-05-14T04:49:51.637Z,15
2018-05-14T04:50:41.669Z,15.1
2018-05-14T04:51:31.509Z,15.2
2018-05-14T04:52:21.519Z,15.2
2018-05-14T04:53:12.146Z,15.2
2018-05-14T04:54:02.183Z,15.3
2018-05-14T04:54:52.001Z,15.3
2018-05-14T04:55:42.026Z,15.3
2018-05-14T04:56:32.393Z,15.2
2018-05-14T04:57:22.471Z,15.2
2018-05-14T04:58:12.302Z,15.2
2018-05-14T04:59:02.565Z,15.2
2018-05-14T04:59:52.635Z,15.1
2018-05-14T05:00:42.804Z,15.1
2018-05-14T05:01:31.928Z,15
2018-05-14T05:02:22.380Z,15.1
2018-05-14T05:03:12.615Z,15.2
2018-05-14T05:04:02.379Z,15.3
2018-05-14T05:04:53.063Z,15.4
2018-05-14T05:05:43.087Z,15.5
2018-05-14T05:06:32.846Z,15.5
2018-05-14T05:07:22.913Z,15.6
2018-05-14T05:08:12.717Z,15.4
2018-05-14T05:09:03.315Z,15.3
2018-05-14T05:09:53.093Z,15.3
2018-05-14T05:10:43.183Z,15.3
2018-05-14T05:11:33.976Z,15.3
2018-05-14T05:12:23.590Z,15.3
2018-05-14T05:13:13.654Z,15.4
2018-05-14T05:14:03.444Z,15.4
2018-05-14T05:14:53.501Z,15.4
2018-05-14T05:15:43.543Z,15.4
2018-05-14T05:16:33.621Z,15.4
2018-05-14T05:17:23.101Z,15.5
2018-05-14T05:18:13.735Z,15.5
2018-05-14T05:19:04.170Z,15.5
2018-05-14T05:19:54.136Z,15.5
2018-05-14T05:20:44.214Z,15.6
2018-05-14T05:21:32.931Z,15.6
2018-05-14T05:22:23.374Z,15.7
2018-05-14T05:23:14.464Z,15.8
2018-05-14T05:24:04.455Z,15.8
2018-05-14T05:24:54.231Z,15.9
2018-05-14T05:25:44.602Z,15.8
2018-05-14T05:26:34.365Z,15.8
2018-05-14T05:27:24.441Z,15.8
2018-05-14T05:28:14.811Z,15.8
2018-05-14T05:29:04.533Z,15.8
2018-05-14T05:29:54.876Z,15.7
2018-05-14T05:30:44.928Z,15.6
2018-05-14T05:31:34.935Z,15.6
2018-05-14T05:32:25.053Z,15.5
2018-05-14T05:33:14.848Z,15.4
2018-05-14T05:34:05.284Z,15.3
2018-05-14T05:34:55.242Z,15.3
2018-05-14T05:35:45.392Z,15.5
2018-05-14T05:36:35.098Z,15.6
2018-05-14T05:37:25.433Z,15.6
2018-05-14T05:38:15.197Z,15.7
2018-05-14T05:39:05.601Z,15.8
2018-05-14T05:39:55.341Z,15.8
2018-05-14T05:40:45.408Z,15.8
2018-05-14T05:41:35.190Z,15.8
2018-05-14T05:42:25.550Z,15.7
2018-05-14T05:43:15.596Z,15.8
2018-05-14T05:44:05.646Z,15.8
2018-05-14T05:44:55.739Z,15.8
2018-05-14T05:45:46.075Z,15.9
2018-05-14T05:46:36.102Z,15.9
2018-05-14T05:47:26.170Z,16
2018-05-14T05:48:15.942Z,15.9
2018-05-14T05:49:06.289Z,15.9
2018-05-14T05:49:56.127Z,16
2018-05-14T05:50:45.865Z,16.1
2018-05-14T05:51:36.221Z,16.1
2018-05-14T05:52:26.505Z,16.1
2018-05-14T05:53:16.332Z,15.9
2018-05-14T05:54:06.694Z,15.9
2018-05-14T05:54:56.463Z,15.8
2018-05-14T05:55:46.515Z,15.7
2018-05-14T05:56:36.607Z,15.6
2018-05-14T05:57:26.930Z,15.6
2018-05-14T05:58:16.737Z,15.7
2018-05-14T05:59:06.213Z,15.8
2018-05-14T05:59:57.115Z,15.9
2018-05-14T06:00:46.914Z,15.9
2018-05-14T06:01:37.329Z,16.1
2018-05-14T06:02:27.023Z,16.1
2018-05-14T06:03:16.512Z,16.2
2018-05-14T06:04:07.450Z,16.1
2018-05-14T06:04:57.498Z,16.2
2018-05-14T06:05:47.553Z,16.2
2018-05-14T06:06:37.051Z,16.1
2018-05-14T06:07:27.393Z,16.2
2018-05-14T06:08:17.741Z,16.3
2018-05-14T06:09:07.813Z,16.3
2018-05-14T06:09:57.600Z,16.4
2018-05-14T06:10:47.442Z,16.4
2018-05-14T06:11:38.010Z,16.4
2018-05-14T06:12:27.490Z,16.5
2018-05-14T06:13:18.106Z,16.5
2018-05-14T06:14:07.907Z,16.5
2018-05-14T06:14:58.265Z,16.4
2018-05-14T06:15:48.055Z,16.4
2018-05-14T06:16:38.364Z,16.6
2018-05-14T06:17:27.849Z,16.9
2018-05-14T06:18:18.498Z,17.2
2018-05-14T06:19:08.552Z,17.5
2018-05-14T06:19:58.657Z,17.8
2018-05-14T06:20:48.409Z,17.9
2018-05-14T06:21:38.761Z,17.9
2018-05-14T06:22:29.177Z,18.1
2018-05-14T06:23:18.862Z,18.1
2018-05-14T06:24:08.661Z,18
2018-05-14T06:24:58.997Z,17.5
2018-05-14T06:25:48.760Z,17.1
2018-05-14T06:26:39.107Z,17.2
2018-05-14T06:27:28.908Z,17.4
2018-05-14T06:28:19.264Z,17.6
2018-05-14T06:29:09.303Z,17.7
2018-05-14T06:29:59.396Z,17.8
2018-05-14T06:30:49.196Z,18
2018-05-14T06:31:39.725Z,18.3
2018-05-14T06:32:28.921Z,18.4
2018-05-14T06:33:19.653Z,18.9
2018-05-14T06:34:09.722Z,18.9
2018-05-14T06:34:59.869Z,19.1
2018-05-14T06:35:50.321Z,19.2
2018-05-14T06:36:39.855Z,19.3
2018-05-14T06:37:29.662Z,19.3
2018-05-14T06:38:19.987Z,19.2
2018-05-14T06:39:09.531Z,19.2
2018-05-14T06:39:59.837Z,19.1
2018-05-14T06:40:50.195Z,18.8
2018-05-14T06:42:30.023Z,18.9
2018-05-14T06:43:20.098Z,19
2018-05-14T06:44:10.444Z,18.8
2018-05-14T06:45:00.234Z,19.1
2018-05-14T06:45:49.863Z,18.9
2018-05-14T06:46:40.342Z,18.9
2018-05-14T06:47:30.412Z,19.1
2018-05-14T06:48:20.481Z,19.4
2018-05-14T06:49:10.850Z,19.5
2018-05-14T06:50:00.950Z,19.6
2018-05-14T06:50:50.655Z,19.6
2018-05-14T06:51:40.728Z,19.2
2018-05-14T06:52:30.508Z,19.3
2018-05-14T06:53:20.520Z,19.3
2018-05-14T06:54:10.952Z,18.8
2018-05-14T06:55:01.360Z,18.9
2018-05-14T06:55:51.321Z,19.6
2018-05-14T06:56:41.474Z,19.6
2018-05-14T06:57:30.872Z,19.9
2018-05-14T06:58:21.501Z,19.9
2018-05-14T06:59:11.567Z,19.8
2018-05-14T07:00:01.635Z,19.8
2018-05-14T07:00:51.416Z,19.6
2018-05-14T07:01:41.189Z,19.6
2018-05-14T07:02:31.527Z,20.1
2018-05-14T07:03:21.881Z,20.1
2018-05-14T07:04:11.936Z,20.1
2018-05-14T07:05:01.433Z,20.3
2018-05-14T07:05:52.115Z,20.7
2018-05-14T07:06:41.857Z,20.6
2018-05-14T07:07:32.199Z,20.7
2018-05-14T07:08:21.949Z,20.6
2018-05-14T07:09:11.746Z,20.6
2018-05-14T07:10:02.359Z,20.6
2018-05-14T07:10:52.149Z,20.6
2018-05-14T07:11:41.655Z,20.7
2018-05-14T07:12:32.304Z,20.8
2018-05-14T07:13:22.352Z,20.6
2018-05-14T07:14:12.689Z,20.6
2018-05-14T07:15:02.869Z,20.7
2018-05-14T07:15:52.926Z,20.4
2018-05-14T07:16:42.859Z,20.3
2018-05-14T07:17:32.963Z,20.3
2018-05-14T07:18:23.009Z,20.7
2018-05-14T07:19:13.335Z,20.9
2018-05-14T07:20:02.584Z,20.9
2018-05-14T07:20:52.629Z,20.9
2018-05-14T07:21:42.694Z,20.9
2018-05-14T07:22:33.313Z,20.9
2018-05-14T07:23:23.399Z,20.4
2018-05-14T07:24:13.436Z,20.3
2018-05-14T07:25:03.255Z,20.4
2018-05-14T07:25:53.575Z,20.8
2018-05-14T07:26:43.353Z,20.9
2018-05-14T07:27:33.419Z,21.2
2018-05-14T07:28:23.204Z,21.3
2018-05-14T07:29:13.836Z,21.1
2018-05-14T07:30:53.676Z,21.3
2018-05-14T07:31:43.740Z,21.5
2018-05-14T07:32:33.579Z,21.8
2018-05-14T07:33:23.948Z,21.7
2018-05-14T07:34:13.898Z,21.8
2018-05-14T07:35:03.985Z,21.8
2018-05-14T07:35:54.035Z,22.2
2018-05-14T07:36:44.098Z,22.3
2018-05-14T07:37:34.461Z,22.4
2018-05-14T07:38:23.935Z,22.3
2018-05-14T07:39:14.579Z,22.3
2018-05-14T07:40:04.065Z,21.8
2018-05-14T07:40:54.427Z,21.8
2018-05-14T07:41:44.494Z,22.1
2018-05-14T07:42:34.812Z,22.4
2018-05-14T07:43:24.877Z,22
2018-05-14T07:44:14.668Z,21.9
2018-05-14T07:45:04.995Z,22.1
2018-05-14T07:45:55.052Z,22.2
2018-05-14T07:46:45.127Z,22.1
2018-05-14T07:47:34.919Z,21.9
2018-05-14T07:48:25.256Z,22.3
2018-05-14T07:49:15.301Z,22.6
2018-05-14T07:50:05.374Z,22.9
2018-05-14T07:50:55.427Z,22.9
2018-05-14T07:51:45.267Z,22.4
2018-05-14T07:52:35.281Z,22.3
2018-05-14T07:53:25.623Z,22.7
2018-05-14T07:54:15.680Z,22.7
2018-05-14T07:55:05.467Z,22.8
2018-05-14T07:55:55.837Z,22.5
2018-05-14T07:56:45.421Z,22.9
2018-05-14T07:57:35.410Z,23.2
2018-05-14T07:58:25.431Z,23.1
2018-05-14T07:59:15.801Z,23.3
2018-05-14T08:00:06.226Z,23
2018-05-14T08:00:55.067Z,22.5
2018-05-14T08:01:46.240Z,22.3
2018-05-14T08:02:35.826Z,22.3
2018-05-14T08:03:26.384Z,22.2
2018-05-14T08:04:16.437Z,22.2
2018-05-14T08:05:06.231Z,22.4
2018-05-14T08:05:56.283Z,22.6
2018-05-14T08:06:46.339Z,22.8
2018-05-14T08:07:36.413Z,23.1
2018-05-14T08:08:26.766Z,22.9
2018-05-14T08:09:16.297Z,22.9
2018-05-14T08:10:06.630Z,23.2
2018-05-14T08:10:56.683Z,23.1
2018-05-14T08:11:46.642Z,22.8
2018-05-14T08:12:36.801Z,22.5
2018-05-14T08:13:26.843Z,22.2
2018-05-14T08:14:17.190Z,22.2
2018-05-14T08:15:06.996Z,22.1
2018-05-14T08:15:56.758Z,21.7
2018-05-14T08:16:47.390Z,22.2
2018-05-14T08:17:37.458Z,22.7
2018-05-14T08:18:27.238Z,23
2018-05-14T08:19:17.555Z,22.6
2018-05-14T08:20:07.665Z,22.1
2018-05-14T08:20:56.870Z,22.3
2018-05-14T08:21:47.850Z,22.1
2018-05-14T08:22:37.302Z,22.3
2018-05-14T08:23:28.443Z,22.4
2018-05-14T08:24:17.930Z,21.9
2018-05-14T08:25:07.992Z,22.3
2018-05-14T08:25:57.602Z,22.8
2018-05-14T08:26:47.912Z,23.4
2018-05-14T08:27:38.191Z,23.7
2018-05-14T08:28:28.393Z,23.1
2018-05-14T08:29:18.444Z,22.3
2018-05-14T08:30:08.145Z,22.2
2018-05-14T08:30:58.706Z,22.4
2018-05-14T08:31:48.263Z,21.9
2018-05-14T08:32:38.028Z,21.5
2018-05-14T08:33:28.051Z,21.6
2018-05-14T08:34:18.560Z,21.6
2018-05-14T08:35:08.482Z,22
2018-05-14T08:35:58.852Z,22
2018-05-14T08:36:48.332Z,22.1
2018-05-14T08:37:38.689Z,22.1
2018-05-14T08:38:29.217Z,22.3
2018-05-14T08:39:19.292Z,22.3
2018-05-14T08:40:08.949Z,22.5
2018-05-14T08:40:58.996Z,22.8
2018-05-14T08:41:49.415Z,23.8
2018-05-14T08:42:38.858Z,23
2018-05-14T08:43:29.422Z,22.7
2018-05-14T08:44:19.143Z,22.3
2018-05-14T08:45:09.234Z,22.3
2018-05-14T08:45:59.684Z,22.8
2018-05-14T08:46:48.824Z,22.9
2018-05-14T08:47:39.420Z,22.7
2018-05-14T08:48:29.768Z,23.1
2018-05-14T08:49:19.258Z,23.3
2018-05-14T08:50:09.266Z,23.4
2018-05-14T08:50:59.110Z,23.4
2018-05-14T08:51:50.027Z,23.1
2018-05-14T08:52:39.545Z,22.9
2018-05-14T08:53:30.134Z,23.3
2018-05-14T08:54:20.333Z,23.5
2018-05-14T08:55:10.276Z,23.6
2018-05-14T08:56:00.035Z,23.8
2018-05-14T08:56:50.402Z,23.9
2018-05-14T08:57:40.875Z,24
2018-05-14T08:58:30.585Z,24.1
2018-05-14T08:59:20.567Z,24.3
2018-05-14T09:00:10.066Z,24.6
2018-05-14T09:01:00.700Z,24.8
2018-05-14T09:01:50.773Z,24.6
2018-05-14T09:02:40.545Z,24.5
2018-05-14T09:03:30.892Z,24.4
2018-05-14T09:04:20.480Z,24.8
2018-05-14T09:05:10.384Z,24.6
2018-05-14T09:06:01.071Z,24.6
2018-05-14T09:06:50.564Z,24.4
2018-05-14T09:07:41.211Z,24.6
2018-05-14T09:08:31.001Z,25
2018-05-14T09:09:21.353Z,25.4
2018-05-14T09:10:11.129Z,25.5
2018-05-14T09:11:01.484Z,24.8
2018-05-14T09:11:51.502Z,24.4
2018-05-14T09:12:41.292Z,23.5
2018-05-14T09:13:31.651Z,22.9
2018-05-14T09:14:21.699Z,23.5
2018-05-14T09:15:11.773Z,23.8
2018-05-14T09:16:01.842Z,23.8
2018-05-14T09:16:51.324Z,24.4
2018-05-14T09:17:41.393Z,24.3
2018-05-14T09:18:32.014Z,24.2
2018-05-14T09:19:22.408Z,23.8
2018-05-14T09:20:11.580Z,23.4
2018-05-14T09:21:02.212Z,23.5
2018-05-14T09:21:51.708Z,23.3
2018-05-14T09:22:42.313Z,23.6
2018-05-14T09:23:32.146Z,24.5
2018-05-14T09:24:22.459Z,24.6
2018-05-14T09:25:12.515Z,24.3
2018-05-14T09:26:02.589Z,24.5
2018-05-14T09:26:52.371Z,24.8
2018-05-14T09:27:42.726Z,25.3
2018-05-14T09:28:32.772Z,25.1
2018-05-14T09:29:22.837Z,24.7
2018-05-14T09:30:12.635Z,23.9
2018-05-14T09:31:02.968Z,23.9
2018-05-14T09:31:53.035Z,23.8
2018-05-14T09:32:42.828Z,24.1
2018-05-14T09:33:33.133Z,24.3
2018-05-14T09:34:23.220Z,24.3
2018-05-14T09:35:13.010Z,24.4
2018-05-14T09:36:03.345Z,24
2018-05-14T09:36:52.635Z,23.7
2018-05-14T09:37:43.463Z,23.6
2018-05-14T09:38:33.539Z,23.7
2018-05-14T09:39:23.668Z,23.8
2018-05-14T09:40:13.682Z,23.7
2018-05-14T09:41:03.763Z,23.6
2018-05-14T09:41:53.516Z,23.8
2018-05-14T09:42:43.860Z,23.6
2018-05-14T09:43:33.927Z,23.3
2018-05-14T09:44:23.763Z,23.1
2018-05-14T09:45:14.047Z,23.2
2018-05-14T09:46:03.842Z,23.4
2018-05-14T09:46:53.340Z,23.2
2018-05-14T09:47:44.218Z,23.1
2018-05-14T09:48:33.712Z,22.8
2018-05-14T09:49:24.070Z,22.8
2018-05-14T09:50:14.427Z,22.7
2018-05-14T09:51:04.508Z,22.8
2018-05-14T09:51:54.551Z,22.7
2018-05-14T09:52:44.309Z,22.6
2018-05-14T09:53:34.464Z,22.4
2018-05-14T09:54:24.741Z,22.1
2018-05-14T09:55:14.779Z,21.9
2018-05-14T09:56:03.727Z,21.8
2018-05-14T09:56:54.366Z,21.6
2018-05-14T09:57:44.679Z,20.9
2018-05-14T09:58:34.781Z,20.6
2018-05-14T09:59:24.336Z,20.1
2018-05-14T10:00:15.205Z,20.1
2018-05-14T10:01:04.215Z,19.8
2018-05-14T10:01:54.176Z,19.4
2018-05-14T10:02:45.091Z,19
2018-05-14T10:03:35.348Z,18.8
2018-05-14T10:04:25.227Z,18.5
2018-05-14T10:05:15.560Z,18.4
2018-05-14T10:06:05.052Z,18.1
2018-05-14T10:06:54.822Z,18
2018-05-14T10:07:45.744Z,18.1
2018-05-14T10:08:35.793Z,18.1
2018-05-14T10:09:25.907Z,18.2
2018-05-14T10:10:15.661Z,18.3
2018-05-14T10:11:05.708Z,18.2
2018-05-14T10:11:55.778Z,18.2
2018-05-14T10:12:46.102Z,18.3
2018-05-14T10:13:36.181Z,18.3
2018-05-14T10:14:26.251Z,18.2
2018-05-14T10:15:16.078Z,18.3
2018-05-14T10:16:06.373Z,18.4
2018-05-14T10:16:56.419Z,18.4
2018-05-14T10:17:46.576Z,18.4
2018-05-14T10:18:36.252Z,18.4
2018-05-14T10:19:26.620Z,18.4
2018-05-14T10:20:16.700Z,18.5
2018-05-14T10:21:06.457Z,18.4
2018-05-14T10:21:56.812Z,18.4
2018-05-14T10:22:46.569Z,18.4
2018-05-14T10:23:36.067Z,18.6
2018-05-14T10:24:26.775Z,18.6
2018-05-14T10:25:16.786Z,18.6
2018-05-14T10:26:07.120Z,18.8
2018-05-14T10:28:37.295Z,18.9
2018-05-14T10:29:27.496Z,18.9
2018-05-14T10:30:16.927Z,18.9
2018-05-14T10:31:07.188Z,19
2018-05-14T10:31:57.466Z,19.1
2018-05-14T10:32:47.337Z,19
2018-05-14T10:33:37.398Z,19.1
2018-05-14T10:34:27.758Z,19.1
2018-05-14T10:35:17.519Z,19.1
2018-05-14T10:36:07.588Z,19.1
2018-05-14T10:36:57.362Z,18.9
2018-05-14T10:37:47.708Z,19.1
2018-05-14T10:38:38.041Z,19
2018-05-14T10:39:28.167Z,19
2018-05-14T10:40:17.627Z,19.1
2018-05-14T10:41:08.248Z,19.1
2018-05-14T10:41:58.043Z,19.1
2018-05-14T10:42:48.394Z,19.1
2018-05-14T10:43:38.172Z,19.1
2018-05-14T10:44:28.521Z,19.1
2018-05-14T10:45:18.533Z,19.1
2018-05-14T10:46:08.326Z,19.2
2018-05-14T10:46:58.116Z,19.3
2018-05-14T10:47:48.764Z,19.3
2018-05-14T10:48:38.528Z,19.3
2018-05-14T10:49:28.872Z,19.3
2018-05-14T10:50:18.953Z,19.3
2018-05-14T10:51:08.454Z,19.3
2018-05-14T10:51:59.052Z,19.3
2018-05-14T10:52:49.404Z,19.3
2018-05-14T10:53:38.713Z,19.3
2018-05-14T10:54:28.688Z,19.3
2018-05-14T10:55:18.731Z,19.4
2018-05-14T10:56:08.837Z,19.3
2018-05-14T10:56:59.427Z,19.3
2018-05-14T10:57:49.242Z,19.2
2018-05-14T10:58:39.605Z,19.2
2018-05-14T10:59:29.639Z,19.1
2018-05-14T11:00:19.114Z,19.1
2018-05-14T11:01:09.773Z,19
2018-05-14T11:01:59.526Z,19.1
2018-05-14T11:02:49.653Z,19.1
2018-05-14T11:03:39.947Z,19
2018-05-14T11:04:29.428Z,19.1
2018-05-14T11:05:20.065Z,19
2018-05-14T11:06:09.855Z,18.9
2018-05-14T11:06:59.923Z,18.9
2018-05-14T11:07:49.966Z,18.9
2018-05-14T11:08:40.315Z,18.9
2018-05-14T11:09:30.376Z,18.6
2018-05-14T11:10:19.865Z,18.5
2018-05-14T11:11:10.253Z,18.4